createdAt,value
2018-01-22T00:00:19.362Z,94.02
2018-01-22T00:02:47.899Z,94.14
2018-01-22T00:05:17.036Z,94.25
2018-01-22T00:07:45.463Z,94.17
2018-01-22T00:10:13.840Z,94.22
2018-01-22T00:12:42.270Z,94.06
2018-01-22T00:15:10.733Z,93.84
2018-01-22T00:17:40.023Z,93.72
2018-01-22T00:20:08.426Z,93.47
2018-01-22T00:22:36.829Z,93.63
2018-01-22T00:25:05.252Z,93.68
2018-01-22T00:27:34.457Z,93.52
2018-01-22T00:30:02.887Z,93.47
2018-01-22T00:32:31.285Z,93.34
2018-01-22T00:34:59.719Z,92.83
2018-01-22T00:37:28.176Z,93.25
2018-01-22T00:39:57.428Z,93.50
2018-01-22T00:42:25.835Z,93.47
2018-01-22T00:44:54.224Z,93.51
2018-01-22T00:47:22.600Z,93.72
2018-01-22T00:49:51.080Z,94.07
2018-01-22T00:52:19.449Z,94.03
2018-01-22T00:54:47.879Z,93.85
2018-01-22T00:57:16.395Z,93.80
2018-01-22T00:59:44.843Z,93.70
2018-01-22T01:02:13.229Z,93.69
2018-01-22T01:04:41.679Z,93.74
2018-01-22T01:07:10.925Z,93.51
2018-01-22T01:09:39.368Z,93.99
2018-01-22T01:12:07.825Z,94.18
2018-01-22T01:14:37.004Z,94.36
2018-01-22T01:17:05.436Z,94.38
2018-01-22T01:19:33.889Z,94.08
2018-01-22T01:22:03.069Z,93.79
2018-01-22T01:24:31.437Z,93.59
2018-01-22T01:26:59.859Z,93.70
2018-01-22T01:29:28.319Z,93.62
2018-01-22T01:31:57.546Z,93.49
2018-01-22T01:34:26.178Z,93.47
2018-01-22T01:36:54.557Z,93.47
2018-01-22T01:39:22.996Z,93.52
2018-01-22T01:41:51.490Z,93.50
2018-01-22T01:44:19.926Z,93.70
2018-01-22T01:46:48.321Z,93.74
2018-01-22T01:49:17.493Z,93.41
2018-01-22T01:51:45.858Z,93.58
2018-01-22T01:54:14.278Z,93.35
2018-01-22T01:56:42.680Z,93.45
2018-01-22T01:59:11.060Z,93.49
2018-01-22T02:01:40.221Z,93.50
2018-01-22T02:04:08.648Z,93.50
2018-01-22T02:06:37.101Z,93.20
2018-01-22T02:09:05.691Z,93.14
2018-01-22T02:11:34.066Z,93.03
2018-01-22T02:14:02.495Z,93.05
2018-01-22T02:16:31.203Z,92.95
2018-01-22T02:18:59.649Z,92.88
2018-01-22T02:21:28.077Z,92.99
2018-01-22T02:23:57.269Z,92.97
2018-01-22T02:26:26.496Z,93.16
2018-01-22T02:28:54.989Z,93.05
2018-01-22T02:31:24.153Z,93.04
2018-01-22T02:33:53.297Z,92.95
2018-01-22T02:36:21.656Z,92.86
2018-01-22T02:38:50.060Z,93.05
2018-01-22T02:41:18.420Z,92.96
2018-01-22T02:43:46.869Z,93.04
2018-01-22T02:46:15.343Z,93.01
2018-01-22T02:48:44.558Z,93.34
2018-01-22T02:51:12.994Z,93.27
2018-01-22T02:53:41.468Z,93.07
2018-01-22T02:56:09.919Z,93.03
2018-01-22T02:58:38.371Z,93.25
2018-01-22T03:01:06.753Z,93.39
2018-01-22T03:03:36.074Z,93.37
2018-01-22T03:06:04.513Z,93.28
2018-01-22T03:08:33.695Z,93.52
2018-01-22T03:11:02.144Z,93.62
2018-01-22T03:13:31.350Z,93.60
2018-01-22T03:15:59.807Z,93.67
2018-01-22T03:18:28.256Z,93.76
2018-01-22T03:20:56.648Z,93.56
2018-01-22T03:23:25.843Z,93.40
2018-01-22T03:25:54.996Z,93.31
2018-01-22T03:28:23.376Z,93.28
2018-01-22T03:30:51.783Z,93.49
2018-01-22T03:33:20.205Z,93.28
2018-01-22T03:35:48.660Z,93.11
2018-01-22T03:38:17.265Z,93.46
2018-01-22T03:40:45.639Z,93.37
2018-01-22T03:43:14.002Z,93.37
2018-01-22T03:45:43.136Z,93.58
2018-01-22T03:48:11.516Z,93.50
2018-01-22T03:50:39.972Z,93.60
2018-01-22T03:53:08.366Z,93.58
2018-01-22T03:55:36.748Z,93.67
2018-01-22T03:58:05.172Z,93.34
2018-01-22T04:00:34.480Z,93.47
2018-01-22T04:03:02.907Z,93.45
2018-01-22T04:05:31.311Z,93.71
2018-01-22T04:07:59.704Z,93.86
2018-01-22T04:10:28.139Z,93.63
2018-01-22T04:12:56.571Z,93.64
2018-01-22T04:15:24.956Z,93.61
2018-01-22T04:17:53.395Z,93.50
2018-01-22T04:20:21.848Z,93.46
2018-01-22T04:22:50.292Z,93.24
2018-01-22T04:25:18.729Z,93.21
2018-01-22T04:27:47.184Z,92.89
2018-01-22T04:30:15.552Z,92.96
2018-01-22T04:32:44.779Z,93.04
2018-01-22T04:35:13.185Z,92.92
2018-01-22T04:37:41.620Z,92.82
2018-01-22T04:40:10.061Z,92.68
2018-01-22T04:42:38.597Z,92.60
2018-01-22T04:45:07.034Z,92.43
2018-01-22T04:47:36.247Z,92.59
2018-01-22T04:50:04.688Z,92.38
2018-01-22T04:52:33.072Z,92.24
2018-01-22T04:55:01.445Z,92.07
2018-01-22T04:57:29.849Z,91.99
2018-01-22T04:59:58.274Z,92.16
2018-01-22T05:02:26.663Z,92.04
2018-01-22T05:04:55.049Z,91.98
2018-01-22T05:07:23.417Z,91.73
2018-01-22T05:09:51.840Z,91.82
2018-01-22T05:12:20.291Z,91.87
2018-01-22T05:14:48.751Z,91.54
2018-01-22T05:17:17.343Z,91.51
2018-01-22T05:19:45.820Z,91.58
2018-01-22T05:22:14.287Z,91.42
2018-01-22T05:24:42.778Z,91.40
2018-01-22T05:27:11.194Z,90.99
2018-01-22T05:29:39.916Z,91.01
2018-01-22T05:32:09.152Z,90.83
2018-01-22T05:34:37.528Z,91.01
2018-01-22T05:37:05.893Z,91.66
2018-01-22T05:39:34.281Z,91.40
2018-01-22T05:42:02.719Z,90.97
2018-01-22T05:44:31.117Z,90.88
2018-01-22T05:47:00.312Z,90.64
2018-01-22T05:49:28.768Z,90.51
2018-01-22T05:51:57.180Z,91.01
2018-01-22T05:54:25.627Z,90.60
2018-01-22T05:56:54.005Z,90.72
2018-01-22T05:59:22.439Z,90.67
2018-01-22T06:01:50.802Z,90.65
2018-01-22T06:04:19.234Z,90.01
2018-01-22T06:06:47.679Z,90.22
2018-01-22T06:09:16.094Z,90.25
2018-01-22T06:11:44.477Z,90.28
2018-01-22T06:14:12.877Z,90.19
2018-01-22T06:16:41.311Z,89.92
2018-01-22T06:19:09.690Z,90.05
2018-01-22T06:21:38.124Z,89.82
2018-01-22T06:24:07.257Z,90.03
2018-01-22T06:26:35.691Z,89.60
2018-01-22T06:29:04.919Z,89.68
2018-01-22T06:31:33.362Z,89.67
2018-01-22T06:34:01.748Z,89.78
2018-01-22T06:36:30.124Z,89.76
2018-01-22T06:38:58.481Z,89.45
2018-01-22T06:41:26.863Z,89.08
2018-01-22T06:43:55.300Z,89.28
2018-01-22T06:46:23.739Z,89.36
2018-01-22T06:48:52.143Z,89.66
2018-01-22T06:51:21.272Z,89.51
2018-01-22T06:53:49.756Z,89.55
2018-01-22T06:56:18.180Z,89.73
2018-01-22T06:58:46.565Z,89.76
2018-01-22T07:01:14.987Z,90.44
2018-01-22T07:03:43.388Z,89.06
2018-01-22T07:06:11.749Z,88.54
2018-01-22T07:08:40.112Z,88.89
2018-01-22T07:11:08.477Z,89.21
2018-01-22T07:13:36.903Z,88.54
2018-01-22T07:16:05.370Z,88.43
2018-01-22T07:18:33.963Z,88.14
2018-01-22T07:21:02.384Z,88.15
2018-01-22T07:23:31.594Z,87.65
2018-01-22T07:26:00.005Z,87.81
2018-01-22T07:28:28.360Z,87.48
2018-01-22T07:30:56.783Z,87.13
2018-01-22T07:33:25.197Z,87.50
2018-01-22T07:35:53.562Z,87.96
2018-01-22T07:38:21.987Z,88.11
2018-01-22T07:40:50.461Z,88.70
2018-01-22T07:43:18.832Z,88.39
2018-01-22T07:45:47.210Z,88.72
2018-01-22T07:48:16.367Z,88.47
2018-01-22T07:50:45.508Z,88.12
2018-01-22T07:53:14.637Z,88.04
2018-01-22T07:55:43.079Z,87.79
2018-01-22T07:58:11.439Z,87.88
2018-01-22T08:00:39.805Z,88.18
2018-01-22T08:03:08.192Z,88.16
2018-01-22T08:05:36.620Z,88.05
2018-01-22T08:08:05.108Z,88.23
2018-01-22T08:10:33.549Z,87.72
2018-01-22T08:13:02.751Z,87.91
2018-01-22T08:15:31.909Z,87.93
2018-01-22T08:18:00.519Z,88.24
2018-01-22T08:20:29.650Z,87.83
2018-01-22T08:22:58.009Z,87.63
2018-01-22T08:25:27.157Z,87.42
2018-01-22T08:27:55.517Z,87.15
2018-01-22T08:30:23.940Z,87.14
2018-01-22T08:32:53.179Z,87.24
2018-01-22T08:35:21.562Z,87.07
2018-01-22T08:37:49.984Z,87.17
2018-01-22T08:40:18.543Z,87.33
2018-01-22T08:42:46.906Z,87.28
2018-01-22T08:45:15.337Z,87.35
2018-01-22T08:47:43.742Z,86.92
2018-01-22T08:50:12.858Z,87.52
2018-01-22T08:52:41.225Z,87.20
2018-01-22T08:55:10.536Z,86.79
2018-01-22T08:57:38.935Z,87.01
2018-01-22T09:00:07.302Z,86.97
2018-01-22T09:02:35.744Z,86.44
2018-01-22T09:05:04.951Z,86.35
2018-01-22T09:07:34.179Z,86.35
2018-01-22T09:10:02.661Z,85.12
2018-01-22T09:12:31.028Z,85.42
2018-01-22T09:14:59.479Z,85.42
2018-01-22T09:17:28.610Z,85.35
2018-01-22T09:19:57.030Z,85.28
2018-01-22T09:22:25.491Z,84.85
2018-01-22T09:24:53.923Z,84.23
2018-01-22T09:27:23.051Z,83.71
2018-01-22T09:29:51.488Z,84.18
2018-01-22T09:32:20.629Z,83.60
2018-01-22T09:34:49.209Z,83.52
2018-01-22T09:37:17.631Z,83.42
2018-01-22T09:39:46.127Z,84.00
2018-01-22T09:42:15.282Z,83.84
2018-01-22T09:44:43.636Z,84.31
2018-01-22T09:47:12.004Z,84.51
2018-01-22T09:49:41.204Z,84.40
2018-01-22T09:52:09.640Z,84.79
2018-01-22T09:54:38.033Z,84.65
2018-01-22T09:57:06.465Z,84.50
2018-01-22T09:59:34.832Z,84.40
2018-01-22T10:02:03.228Z,83.87
2018-01-22T10:04:31.591Z,84.06
2018-01-22T10:06:59.951Z,84.28
2018-01-22T10:09:29.104Z,83.66
2018-01-22T10:11:57.463Z,82.79
2018-01-22T10:14:25.832Z,82.83
2018-01-22T10:16:54.264Z,82.78
2018-01-22T10:19:22.692Z,82.65
2018-01-22T10:21:51.131Z,82.72
2018-01-22T10:24:20.357Z,82.40
2018-01-22T10:26:48.796Z,82.27
2018-01-22T10:29:17.231Z,81.89
2018-01-22T10:31:45.678Z,81.60
2018-01-22T10:34:14.863Z,81.79
2018-01-22T10:36:44.029Z,81.61
2018-01-22T10:39:12.400Z,81.20
2018-01-22T10:41:40.820Z,81.91
2018-01-22T10:44:10.046Z,81.25
2018-01-22T10:46:38.408Z,80.68
2018-01-22T10:49:07.583Z,80.29
2018-01-22T10:51:35.956Z,80.25
2018-01-22T10:54:04.372Z,81.15
2018-01-22T10:56:32.780Z,81.68
2018-01-22T10:59:01.206Z,82.23
2018-01-22T11:01:29.614Z,83.00
2018-01-22T11:03:58.083Z,83.69
2018-01-22T11:06:27.288Z,83.52
2018-01-22T11:08:56.421Z,83.46
2018-01-22T11:11:24.879Z,83.20
2018-01-22T11:13:53.317Z,83.91
2018-01-22T11:16:21.809Z,84.17
2018-01-22T11:18:50.944Z,83.43
2018-01-22T11:21:19.359Z,84.02
2018-01-22T11:23:47.815Z,83.93
2018-01-22T11:26:16.235Z,84.24
2018-01-22T11:28:44.608Z,84.41
2018-01-22T11:31:13.075Z,84.39
2018-01-22T11:33:41.428Z,84.42
2018-01-22T11:36:09.814Z,84.38
2018-01-22T11:38:39.095Z,84.45
2018-01-22T11:41:07.543Z,85.43
2018-01-22T11:43:36.697Z,84.99
2018-01-22T11:46:05.154Z,85.18
2018-01-22T11:48:33.532Z,84.73
2018-01-22T11:51:01.921Z,85.12
2018-01-22T11:53:30.329Z,84.36
2018-01-22T11:55:58.786Z,85.58
2018-01-22T11:58:27.989Z,85.39
2018-01-22T12:00:56.333Z,85.88
2018-01-22T12:03:25.457Z,86.04
2018-01-22T12:05:53.828Z,86.26
2018-01-22T12:08:22.196Z,85.57
2018-01-22T12:10:50.568Z,86.34
2018-01-22T12:13:19.736Z,86.25
2018-01-22T12:15:48.155Z,86.16
2018-01-22T12:18:16.524Z,85.85
2018-01-22T12:20:45.725Z,85.15
2018-01-22T12:23:14.108Z,85.78
2018-01-22T12:25:42.531Z,86.66
2018-01-22T12:28:11.132Z,87.21
2018-01-22T12:30:39.506Z,87.48
2018-01-22T12:33:07.869Z,87.62
2018-01-22T12:35:36.331Z,87.32
2018-01-22T12:38:04.718Z,88.00
2018-01-22T12:40:33.167Z,87.84
2018-01-22T12:43:01.617Z,87.81
2018-01-22T12:45:30.058Z,87.83
2018-01-22T12:47:58.519Z,86.81
2018-01-22T12:50:26.917Z,87.13
2018-01-22T12:52:55.351Z,86.59
2018-01-22T12:55:23.734Z,86.95
2018-01-22T12:57:52.192Z,86.81
2018-01-22T13:00:20.561Z,87.79
2018-01-22T13:02:48.921Z,87.75
2018-01-22T13:05:17.473Z,87.69
2018-01-22T13:07:45.896Z,86.73
2018-01-22T13:10:14.337Z,86.98
2018-01-22T13:12:42.740Z,87.36
2018-01-22T13:15:11.100Z,87.64
2018-01-22T13:17:39.529Z,87.98
2018-01-22T13:20:07.896Z,88.14
2018-01-22T13:22:36.347Z,88.30
2018-01-22T13:25:04.769Z,87.60
2018-01-22T13:27:33.133Z,87.19
2018-01-22T13:30:01.633Z,87.95
2018-01-22T13:32:30.094Z,88.24
2018-01-22T13:34:58.473Z,88.17
2018-01-22T13:37:26.856Z,87.85
2018-01-22T13:40:00.736Z,88.37
2018-01-22T13:42:29.110Z,88.97
2018-01-22T13:44:57.541Z,88.57
2018-01-22T13:47:27.387Z,89.11
2018-01-22T13:49:56.027Z,89.63
2018-01-22T13:52:24.464Z,89.27
2018-01-22T13:54:52.840Z,89.25
2018-01-22T13:57:21.224Z,89.80
2018-01-22T13:59:49.669Z,89.58
2018-01-22T14:02:18.884Z,90.08
2018-01-22T14:04:47.300Z,93.82
2018-01-22T14:07:15.697Z,90.44
2018-01-22T14:09:44.123Z,91.42
2018-01-22T14:12:12.516Z,91.42
2018-01-22T14:14:40.937Z,90.86
2018-01-22T14:17:09.308Z,91.49
2018-01-22T14:19:37.693Z,91.50
2018-01-22T14:22:06.295Z,91.54
2018-01-22T14:24:34.715Z,91.55
2018-01-22T14:27:03.087Z,91.68
2018-01-22T14:29:32.392Z,91.93
2018-01-22T14:32:00.745Z,92.05
2018-01-22T14:34:29.097Z,91.96
2018-01-22T14:36:57.468Z,91.64
2018-01-22T14:39:25.832Z,92.06
2018-01-22T14:41:54.260Z,92.25
2018-01-22T14:44:22.640Z,92.84
2018-01-22T14:46:51.020Z,92.68
2018-01-22T14:49:20.178Z,92.88
2018-01-22T14:51:48.609Z,93.05
2018-01-22T14:54:17.004Z,93.10
2018-01-22T14:56:45.436Z,92.67
2018-01-22T14:59:13.879Z,92.92
2018-01-22T15:01:42.347Z,93.00
2018-01-22T15:04:10.793Z,92.77
2018-01-22T15:06:39.931Z,93.14
2018-01-22T15:09:08.344Z,93.04
2018-01-22T15:11:36.712Z,93.19
2018-01-22T15:14:05.080Z,93.00
2018-01-22T15:16:33.580Z,92.89
2018-01-22T15:19:02.020Z,93.11
2018-01-22T15:21:30.399Z,93.39
2018-01-22T15:23:58.776Z,93.66
2018-01-22T15:26:27.207Z,93.42
2018-01-22T15:28:56.453Z,93.64
2018-01-22T15:31:24.891Z,93.85
2018-01-22T15:33:53.256Z,94.11
2018-01-22T15:36:21.715Z,94.19
2018-01-22T15:38:50.116Z,94.05
2018-01-22T15:41:18.544Z,94.48
2018-01-22T15:43:47.008Z,94.64
2018-01-22T15:46:16.204Z,94.56
2018-01-22T15:48:45.404Z,94.80
2018-01-22T15:51:14.644Z,94.85
2018-01-22T15:53:43.083Z,94.68
2018-01-22T15:56:12.288Z,94.74
2018-01-22T15:58:40.824Z,94.74
2018-01-22T16:01:09.177Z,94.68
2018-01-22T16:03:37.538Z,94.73
2018-01-22T16:06:05.998Z,94.93
2018-01-22T16:08:34.431Z,95.06
2018-01-22T16:11:03.636Z,95.00
2018-01-22T16:13:32.101Z,95.17
2018-01-22T16:16:00.539Z,95.26
2018-01-22T16:18:29.775Z,95.21
2018-01-22T16:20:58.204Z,95.18
2018-01-22T16:23:26.635Z,95.11
2018-01-22T16:25:55.097Z,94.96
2018-01-22T16:28:23.583Z,94.96
2018-01-22T16:30:52.004Z,95.04
2018-01-22T16:33:20.369Z,94.70
2018-01-22T16:35:48.796Z,94.44
2018-01-22T16:38:17.932Z,94.51
2018-01-22T16:40:46.349Z,94.55
2018-01-22T16:43:14.775Z,94.44
2018-01-22T16:45:43.199Z,94.31
2018-01-22T16:48:11.668Z,94.23
2018-01-22T16:50:40.865Z,94.07
2018-01-22T16:53:09.300Z,94.25
2018-01-22T16:55:37.825Z,94.46
2018-01-22T16:58:06.263Z,94.32
2018-01-22T17:00:34.629Z,94.37
2018-01-22T17:03:03.119Z,94.40
2018-01-22T17:05:32.266Z,94.59
2018-01-22T17:08:00.707Z,94.61
2018-01-22T17:10:29.164Z,94.56
2018-01-22T17:12:58.347Z,94.67
2018-01-22T17:15:26.775Z,94.78
2018-01-22T17:17:55.231Z,94.82
2018-01-22T17:20:24.424Z,94.95
2018-01-22T17:22:53.663Z,95.04
2018-01-22T17:25:22.029Z,94.97
2018-01-22T17:27:50.400Z,94.89
2018-01-22T17:30:19.711Z,94.62
2018-01-22T17:32:48.087Z,94.56
2018-01-22T17:35:16.450Z,94.25
2018-01-22T17:37:45.606Z,94.14
2018-01-22T17:40:14.023Z,94.27
2018-01-22T17:42:42.400Z,94.01
2018-01-22T17:45:11.771Z,93.93
2018-01-22T17:47:40.194Z,93.88
2018-01-22T17:50:08.572Z,93.87
2018-01-22T17:52:37.779Z,93.52
2018-01-22T17:55:06.215Z,93.53
2018-01-22T17:57:34.616Z,93.41
2018-01-22T18:00:03.776Z,93.52
2018-01-22T18:02:32.202Z,93.24
2018-01-22T18:05:00.609Z,93.17
2018-01-22T18:07:28.988Z,93.02
2018-01-22T18:09:57.345Z,92.66
2018-01-22T18:12:26.481Z,92.69
2018-01-22T18:14:54.949Z,92.71
2018-01-22T18:17:23.383Z,92.60
2018-01-22T18:19:52.563Z,92.82
2018-01-22T18:22:20.984Z,92.90
2018-01-22T18:24:49.409Z,92.98
2018-01-22T18:27:17.830Z,92.53
2018-01-22T18:29:46.272Z,92.30
2018-01-22T18:32:14.712Z,92.42
2018-01-22T18:34:43.102Z,92.60
2018-01-22T18:37:11.536Z,92.40
2018-01-22T18:39:40.745Z,92.68
2018-01-22T18:42:09.892Z,92.85
2018-01-22T18:44:38.277Z,92.73
2018-01-22T18:47:06.634Z,92.60
2018-01-22T18:49:35.028Z,92.52
2018-01-22T18:52:03.456Z,92.38
2018-01-22T18:54:32.691Z,92.22
2018-01-22T18:57:01.135Z,92.43
2018-01-22T18:59:29.515Z,92.37
2018-01-22T19:01:58.899Z,92.21
2018-01-22T19:04:27.241Z,92.32
2018-01-22T19:06:56.382Z,92.01
2018-01-22T19:09:24.839Z,91.97
2018-01-22T19:11:53.215Z,91.91
2018-01-22T19:14:21.573Z,91.97
2018-01-22T19:16:50.054Z,91.99
2018-01-22T19:19:18.437Z,92.56
2018-01-22T19:21:46.857Z,92.41
2018-01-22T19:24:16.021Z,92.54
2018-01-22T19:26:44.372Z,92.44
2018-01-22T19:29:12.796Z,92.23
2018-01-22T19:31:41.181Z,92.25
2018-01-22T19:34:09.610Z,92.26
2018-01-22T19:36:37.972Z,92.50
2018-01-22T19:39:07.138Z,92.99
2018-01-22T19:41:35.591Z,93.31
2018-01-22T19:44:04.030Z,93.04
2018-01-22T19:46:32.405Z,92.90
2018-01-22T19:49:01.644Z,92.87
2018-01-22T19:51:30.012Z,93.01
2018-01-22T19:53:58.439Z,93.11
2018-01-22T19:56:27.016Z,92.90
2018-01-22T19:58:55.388Z,93.50
2018-01-22T20:01:24.449Z,93.94
2018-01-22T20:03:52.940Z,94.20
2018-01-22T20:06:21.304Z,94.24
2018-01-22T20:08:49.750Z,94.35
2018-01-22T20:11:19.505Z,94.16
2018-01-22T20:13:47.862Z,93.99
2018-01-22T20:16:16.305Z,93.81
2018-01-22T20:18:44.731Z,93.93
2018-01-22T20:21:13.167Z,93.96
2018-01-22T20:23:41.801Z,93.85
2018-01-22T20:26:10.228Z,93.80
2018-01-22T20:28:38.596Z,93.65
2018-01-22T20:31:07.265Z,93.64
2018-01-22T20:33:35.624Z,93.43
2018-01-22T20:36:04.053Z,93.39
2018-01-22T20:38:32.688Z,93.23
2018-01-22T20:41:01.116Z,93.06
2018-01-22T20:43:29.477Z,93.33
2018-01-22T20:45:57.920Z,93.24
2018-01-22T20:48:26.280Z,93.25
2018-01-22T20:50:56.192Z,93.24
2018-01-22T20:53:25.415Z,93.25
2018-01-22T20:55:53.801Z,93.56
2018-01-22T20:58:22.307Z,93.97
2018-01-22T21:00:50.692Z,94.22
2018-01-22T21:03:19.088Z,94.18
2018-01-22T21:05:47.511Z,94.36
2018-01-22T21:08:15.892Z,94.28
2018-01-22T21:10:44.245Z,94.67
2018-01-22T21:13:13.387Z,95.08
2018-01-22T21:15:41.839Z,95.13
2018-01-22T21:18:10.280Z,95.01
2018-01-22T21:20:38.698Z,94.82
2018-01-22T21:23:07.081Z,94.87
2018-01-22T21:25:35.473Z,94.80
2018-01-22T21:28:03.833Z,94.68
2018-01-22T21:30:32.233Z,94.49
2018-01-22T21:33:00.631Z,94.36
2018-01-22T21:35:29.067Z,94.32
2018-01-22T21:37:57.503Z,94.04
2018-01-22T21:40:25.900Z,93.94
2018-01-22T21:42:54.256Z,93.79
2018-01-22T21:45:23.383Z,93.67
2018-01-22T21:47:52.512Z,93.38
2018-01-22T21:50:20.934Z,93.34
2018-01-22T21:52:49.409Z,93.22
2018-01-22T21:55:17.844Z,92.85
2018-01-22T21:57:46.217Z,92.87
2018-01-22T22:00:14.651Z,92.73
2018-01-22T22:02:43.779Z,92.61
2018-01-22T22:05:12.897Z,92.72
2018-01-22T22:07:41.303Z,92.74
2018-01-22T22:10:09.669Z,92.78
2018-01-22T22:12:38.101Z,92.58
2018-01-22T22:15:07.267Z,92.47
2018-01-22T22:17:35.692Z,92.92
2018-01-22T22:20:04.820Z,92.87
2018-01-22T22:22:33.220Z,92.69
2018-01-22T22:25:01.635Z,92.61
2018-01-22T22:27:30.827Z,92.76
2018-01-22T22:29:59.218Z,92.84
2018-01-22T22:32:28.226Z,92.90
2018-01-22T22:34:56.887Z,93.16
2018-01-22T22:37:26.084Z,93.18
2018-01-22T22:39:54.464Z,93.30
2018-01-22T22:42:22.915Z,93.42
2018-01-22T22:44:51.335Z,93.41
2018-01-22T22:47:20.531Z,93.12
2018-01-22T22:49:49.687Z,93.16
2018-01-22T22:52:19.011Z,93.43
2018-01-22T22:54:47.443Z,93.63
2018-01-22T22:57:15.974Z,93.75
2018-01-22T22:59:44.359Z,93.71
2018-01-22T23:02:12.721Z,93.67
2018-01-22T23:04:41.088Z,93.65
2018-01-22T23:07:09.452Z,93.62
2018-01-22T23:09:37.863Z,93.62
2018-01-22T23:12:06.663Z,93.63
2018-01-22T23:14:35.857Z,93.61
2018-01-22T23:17:05.095Z,93.60
2018-01-22T23:19:33.478Z,93.38
2018-01-22T23:22:01.902Z,93.27
2018-01-22T23:24:30.313Z,93.72
2018-01-22T23:26:59.445Z,93.84
2018-01-22T23:29:27.887Z,94.15
2018-01-22T23:31:57.078Z,94.13
2018-01-22T23:34:26.276Z,94.63
2018-01-22T23:36:54.672Z,95.07
2018-01-22T23:39:23.851Z,95.32
2018-01-22T23:41:53.065Z,95.21
2018-01-22T23:44:22.291Z,95.17
2018-01-22T23:46:50.684Z,95.16
2018-01-22T23:49:19.040Z,95.01
2018-01-22T23:51:47.421Z,94.83
2018-01-22T23:54:20.697Z,94.55
2018-01-22T23:56:49.080Z,94.21
2018-01-22T23:59:18.271Z,94.13
